Time,TemperatureF,DewpointF,PressureIn,WindDirection,WindDirectionDegrees,WindSpeedMPH,WindSpeedGustMPH,Humidity,HourlyPrecipIn,Conditions,Clouds,dailyrainin,SolarRadiationWatts/m^2,SoftwareType,DateUTC
2013-02-27 00:00:00,43.5,43.0,30.08,ENE,71,2.0,9.0,98,0.00,RA,,0.00,0.0,WeatherDisplay:10.37,2013-02-26 22:00:00,
2013-02-27 00:10:00,43.5,43.0,30.08,ENE,77,3.0,6.0,98,0.00,,,0.00,0.0,WeatherDisplay:10.37,2013-02-26 22:10:00,
2013-02-27 00:20:00,43.5,43.0,30.09,ENE,77,0.0,5.0,98,0.00,,,0.00,0.0,WeatherDisplay:10.37,2013-02-26 22:20:00,
2013-02-27 00:30:00,43.5,43.0,30.08,ENE,72,0.0,6.0,98,0.00,,,0.00,0.0,WeatherDisplay:10.37,2013-02-26 22:30:00,
2013-02-27 00:40:00,43.5,43.0,30.07,ENE,73,0.0,9.0,98,0.00,,,0.00,0.0,WeatherDisplay:10.37,2013-02-26 22:40:00,
2013-02-27 00:50:00,43.4,42.9,30.06,ENE,57,8.0,9.0,98,0.00,,,0.00,0.0,WeatherDisplay:10.37,2013-02-26 22:50:00,
2013-02-27 01:00:00,43.4,42.9,30.08,ENE,61,0.0,10.0,98,0.00,,,0.00,0.0,WeatherDisplay:10.37,2013-02-26 23:00:00,
2013-02-27 01:10:00,43.3,42.8,30.07,NE,43,3.0,8.0,98,0.00,,,0.00,0.0,WeatherDisplay:10.37,2013-02-26 23:10:00,
2013-02-27 01:20:00,43.3,42.8,30.08,NE,40,0.0,4.0,98,0.00,,,0.00,0.0,WeatherDisplay:10.37,2013-02-26 23:20:00,
2013-02-27 01:30:00,43.4,42.8,30.08,ESE,105,2.0,4.0,98,0.00,,,0.00,0.0,WeatherDisplay:10.37,2013-02-26 23:30:00,
2013-02-27 01:40:00,43.3,42.8,30.08,ENE,68,0.0,4.0,98,0.00,,,0.00,0.0,WeatherDisplay:10.37,2013-02-26 23:40:00,
2013-02-27 01:50:00,43.3,42.8,30.08,ENE,72,0.0,1.0,98,0.00,,,0.00,0.0,WeatherDisplay:10.37,2013-02-26 23:50:00,
2013-02-27 02:00:00,43.3,42.8,30.08,East,83,0.0,1.0,98,0.00,,,0.00,0.0,WeatherDisplay:10.37,2013-02-27 00:00:00,
2013-02-27 02:10:00,43.3,42.8,30.08,East,83,0.0,0.0,98,0.00,,,0.00,0.0,WeatherDisplay:10.37,2013-02-27 00:10:00,
2013-02-27 02:20:00,43.3,42.8,30.08,East,83,1.0,3.0,98,0.00,,,0.00,0.0,WeatherDisplay:10.37,2013-02-27 00:20:00,
2013-02-27 02:30:00,43.3,42.8,30.08,East,83,0.0,0.0,98,0.00,,,0.00,0.0,WeatherDisplay:10.37,2013-02-27 00:30:00,
2013-02-27 02:40:00,43.3,42.8,30.07,East,83,0.0,0.0,98,0.00,,,0.00,0.0,WeatherDisplay:10.37,2013-02-27 00:40:00,
2013-02-27 02:50:00,43.3,42.8,30.07,ENE,64,2.0,4.0,98,0.00,,,0.00,0.0,WeatherDisplay:10.37,2013-02-27 00:50:00,
2013-02-27 03:00:00,43.3,42.8,30.07,NE,55,1.0,3.0,98,0.00,,,0.00,0.0,WeatherDisplay:10.37,2013-02-27 01:00:00,
2013-02-27 03:10:00,43.3,42.8,30.07,NE,55,0.0,2.0,98,0.00,,,0.00,0.0,WeatherDisplay:10.37,2013-02-27 01:10:00,
2013-02-27 03:20:00,43.4,42.9,30.07,NE,55,0.0,1.0,98,0.00,,,0.00,0.0,WeatherDisplay:10.37,2013-02-27 01:20:00,
2013-02-27 03:30:00,43.3,42.8,30.07,NE,49,0.0,3.0,98,0.00,,,0.00,0.0,WeatherDisplay:10.37,2013-02-27 01:30:00,
2013-02-27 03:40:00,43.3,42.8,30.07,NNW,346,0.0,4.0,98,0.00,,,0.00,0.0,WeatherDisplay:10.37,2013-02-27 01:40:00,
2013-02-27 03:50:00,43.3,42.8,30.07,NNW,329,2.0,4.0,98,0.00,,,0.00,0.0,WeatherDisplay:10.37,2013-02-27 01:50:00,
2013-02-27 04:00:00,43.3,42.7,30.07,NNW,336,0.0,4.0,98,0.00,,,0.00,0.0,WeatherDisplay:10.37,2013-02-27 02:00:00,
2013-02-27 04:10:00,43.3,42.8,30.06,NNW,337,1.0,5.0,98,0.00,,,0.00,0.0,WeatherDisplay:10.37,2013-02-27 02:10:00,
2013-02-27 04:20:00,43.3,42.8,30.06,NNW,341,2.0,4.0,98,0.00,,,0.00,0.0,WeatherDisplay:10.37,2013-02-27 02:20:00,
2013-02-27 04:30:00,43.3,42.8,30.06,North,350,1.0,4.0,98,0.00,,,0.00,0.0,WeatherDisplay:10.37,2013-02-27 02:30:00,
2013-02-27 04:40:00,43.3,42.8,30.06,NNW,347,2.0,4.0,98,0.00,,,0.00,0.0,WeatherDisplay:10.37,2013-02-27 02:40:00,
2013-02-27 04:50:00,43.3,42.8,30.06,NNW,337,1.0,5.0,98,0.00,,,0.00,0.0,WeatherDisplay:10.37,2013-02-27 02:50:00,
2013-02-27 05:00:00,43.4,42.9,30.06,NW,317,2.0,5.0,98,0.00,,,0.00,0.0,WeatherDisplay:10.37,2013-02-27 03:00:00,
2013-02-27 05:10:00,43.4,42.9,30.06,WNW,298,2.0,5.0,98,0.00,,,0.00,0.0,WeatherDisplay:10.37,2013-02-27 03:10:00,
2013-02-27 05:20:00,43.4,42.9,30.06,NW,310,2.0,5.0,98,0.00,,,0.00,0.0,WeatherDisplay:10.37,2013-02-27 03:20:00,
2013-02-27 05:30:00,43.4,42.9,30.06,NW,304,0.0,4.0,98,0.00,,,0.00,0.0,WeatherDisplay:10.37,2013-02-27 03:30:00,
2013-02-27 05:40:00,43.5,43.0,30.06,NW,310,0.0,2.0,98,0.00,,,0.00,0.0,WeatherDisplay:10.37,2013-02-27 03:40:00,
2013-02-27 05:50:00,43.5,43.0,30.06,NW,310,0.0,2.0,98,0.00,,,0.00,0.0,WeatherDisplay:10.37,2013-02-27 03:50:00,
2013-02-27 06:00:00,43.5,43.0,30.06,NW,310,0.0,2.0,98,0.00,,,0.00,0.0,WeatherDisplay:10.37,2013-02-27 04:00:00,
2013-02-27 06:10:00,43.5,43.0,30.06,NW,310,1.0,3.0,98,0.00,,,0.00,0.0,WeatherDisplay:10.37,2013-02-27 04:10:00,
2013-02-27 06:20:00,43.5,43.0,30.06,NW,307,0.0,2.0,98,0.00,,,0.00,0.0,WeatherDisplay:10.37,2013-02-27 04:20:00,
2013-02-27 06:30:00,43.5,43.0,30.06,NW,306,1.0,2.0,98,0.00,,,0.00,0.0,WeatherDisplay:10.37,2013-02-27 04:30:00,
2013-02-27 06:40:00,43.5,43.0,30.06,NW,306,1.0,4.0,98,0.00,,,0.00,0.0,WeatherDisplay:10.37,2013-02-27 04:40:00,
2013-02-27 06:50:00,43.5,43.0,30.06,NW,304,1.0,4.0,98,0.00,,,0.00,0.0,WeatherDisplay:10.37,2013-02-27 04:50:00,
2013-02-27 07:10:00,43.6,43.1,30.06,NW,315,0.0,5.0,98,0.00,,,0.00,7.0,WeatherDisplay:10.37,2013-02-27 05:10:00,
2013-02-27 07:20:00,43.6,43.1,30.06,NNW,329,1.0,5.0,98,0.00,,,0.00,9.0,WeatherDisplay:10.37,2013-02-27 05:20:00,
2013-02-27 07:30:00,43.7,43.1,30.06,NNW,342,2.0,4.0,98,0.00,,,0.00,21.0,WeatherDisplay:10.37,2013-02-27 05:30:00,
2013-02-27 07:40:00,43.7,43.2,30.06,NNW,347,2.0,8.0,98,0.00,,,0.00,30.0,WeatherDisplay:10.37,2013-02-27 05:40:00,
2013-02-27 07:50:00,43.8,43.3,30.07,NNW,333,1.0,4.0,98,0.00,,,0.00,23.0,WeatherDisplay:10.37,2013-02-27 05:50:00,
2013-02-27 08:00:00,43.9,43.4,30.06,NW,318,0.0,2.0,98,0.00,OVC,,0.00,54.0,WeatherDisplay:10.37,2013-02-27 06:00:00,
2013-02-27 08:10:00,44.1,43.6,30.07,NW,318,0.0,2.0,98,0.00,OVC,,0.00,60.0,WeatherDisplay:10.37,2013-02-27 06:10:00,
2013-02-27 08:20:00,44.1,43.6,30.07,NW,318,0.0,3.0,98,0.00,OVC,,0.00,54.0,WeatherDisplay:10.37,2013-02-27 06:20:00,
2013-02-27 08:30:00,44.3,43.8,30.07,NW,318,1.0,4.0,98,0.00,OVC,,0.00,74.0,WeatherDisplay:10.37,2013-02-27 06:30:00,
2013-02-27 08:40:00,44.2,43.7,30.07,NW,319,0.0,4.0,98,0.00,OVC,,0.00,77.0,WeatherDisplay:10.37,2013-02-27 06:40:00,
2013-02-27 08:50:00,44.4,43.9,30.07,NW,321,1.0,3.0,98,0.00,OVC,,0.00,53.0,WeatherDisplay:10.37,2013-02-27 06:50:00,
2013-02-27 09:10:00,44.3,43.7,30.07,WNW,294,3.0,5.0,98,0.00,OVC,,0.00,111.0,WeatherDisplay:10.37,2013-02-27 07:10:00,
2013-02-27 09:20:00,44.4,43.9,30.07,WNW,295,1.0,5.0,98,0.00,OVC,,0.00,109.0,WeatherDisplay:10.37,2013-02-27 07:20:00,
2013-02-27 09:30:00,44.4,43.9,30.07,NW,307,1.0,5.0,98,0.00,OVC,,0.00,116.0,WeatherDisplay:10.37,2013-02-27 07:30:00,
2013-02-27 09:40:00,44.5,44.0,30.07,NW,310,2.0,6.0,98,0.00,OVC,,0.00,134.0,WeatherDisplay:10.37,2013-02-27 07:40:00,
2013-02-27 09:50:00,44.6,44.1,30.07,NW,320,2.0,6.0,98,0.00,OVC,,0.00,114.0,WeatherDisplay:10.37,2013-02-27 07:50:00,
2013-02-27 10:00:00,44.6,44.1,30.07,NW,324,3.0,6.0,98,0.00,SCT,,0.00,251.0,WeatherDisplay:10.37,2013-02-27 08:00:00,
2013-02-27 10:10:00,44.7,44.4,30.06,NNW,336,2.0,8.0,99,0.00,OVC,,0.00,137.0,WeatherDisplay:10.37,2013-02-27 08:10:00,
2013-02-27 10:20:00,44.8,44.3,30.07,NW,322,2.0,7.0,98,0.00,OVC,,0.00,162.0,WeatherDisplay:10.37,2013-02-27 08:20:00,
2013-02-27 10:30:00,44.7,44.2,30.07,NW,318,2.0,6.0,98,0.00,OVC,,0.00,137.0,WeatherDisplay:10.37,2013-02-27 08:30:00,
2013-02-27 10:40:00,45.0,44.5,30.07,NW,326,2.0,5.0,98,0.00,BKN,,0.00,193.0,WeatherDisplay:10.37,2013-02-27 08:40:00,
2013-02-27 10:50:00,45.2,44.7,30.07,NNW,330,2.0,6.0,98,0.00,BKN,,0.00,199.0,WeatherDisplay:10.37,2013-02-27 08:50:00,
2013-02-27 11:00:00,44.9,44.4,30.07,NNW,336,2.0,7.0,98,0.00,BKN,,0.00,271.0,WeatherDisplay:10.37,2013-02-27 09:00:00,
2013-02-27 11:10:00,45.2,44.6,30.07,NNW,337,3.0,7.0,98,0.00,BKN,,0.00,216.0,WeatherDisplay:10.37,2013-02-27 09:10:00,
2013-02-27 11:20:00,45.4,44.9,30.08,NNW,337,1.0,7.0,98,0.00,OVC,,0.00,137.0,WeatherDisplay:10.37,2013-02-27 09:20:00,
2013-02-27 11:30:00,45.1,44.6,30.08,NW,318,2.0,6.0,98,0.00,OVC,,0.00,192.0,WeatherDisplay:10.37,2013-02-27 09:30:00,
2013-02-27 11:40:00,45.1,44.6,30.08,NW,308,2.0,6.0,98,0.00,OVC,,0.00,153.0,WeatherDisplay:10.37,2013-02-27 09:40:00,
2013-02-27 11:50:00,45.2,44.6,30.08,NW,319,0.0,5.0,98,0.00,OVC,,0.00,105.0,WeatherDisplay:10.37,2013-02-27 09:50:00,
2013-02-27 12:00:00,45.1,44.6,30.08,WNW,301,1.0,5.0,98,0.00,BKN,,0.00,257.0,WeatherDisplay:10.37,2013-02-27 10:00:00,
2013-02-27 12:10:00,45.1,44.6,30.07,NNW,339,3.0,8.0,98,0.00,BKN,,0.00,246.0,WeatherDisplay:10.37,2013-02-27 10:10:00,
2013-02-27 12:20:00,45.0,44.5,30.08,NNW,340,5.0,9.0,98,0.00,BKN,,0.00,251.0,WeatherDisplay:10.37,2013-02-27 10:20:00,
2013-02-27 12:30:00,45.6,45.1,30.07,NNW,339,2.0,8.0,98,0.00,OVC,,0.00,202.0,WeatherDisplay:10.37,2013-02-27 10:30:00,
2013-02-27 12:40:00,45.0,44.5,30.08,NNW,348,6.0,9.0,98,0.00,OVC,,0.00,125.0,WeatherDisplay:10.37,2013-02-27 10:40:00,
2013-02-27 12:50:00,45.0,44.5,30.07,North,356,7.0,12.0,98,0.00,OVC,,0.00,100.0,WeatherDisplay:10.37,2013-02-27 10:50:00,
2013-02-27 13:00:00,44.9,44.4,30.07,North,11,10.0,15.0,98,0.00,OVC,,0.00,128.0,WeatherDisplay:10.37,2013-02-27 11:00:00,
2013-02-27 13:10:00,44.7,44.2,30.06,NNE,16,6.0,15.0,98,0.00,OVC,,0.00,128.0,WeatherDisplay:10.37,2013-02-27 11:10:00,
2013-02-27 13:20:00,44.7,44.2,30.06,NNE,16,9.0,13.0,98,0.00,OVC,,0.00,169.0,WeatherDisplay:10.37,2013-02-27 11:20:00,
2013-02-27 13:30:00,44.6,44.0,30.06,NNE,21,8.0,14.0,98,0.00,OVC,,0.00,155.0,WeatherDisplay:10.37,2013-02-27 11:30:00,
2013-02-27 13:40:00,44.2,43.7,30.06,NNE,19,8.0,16.0,98,0.00,OVC,,0.00,146.0,WeatherDisplay:10.37,2013-02-27 11:40:00,
2013-02-27 13:50:00,44.4,43.8,30.07,NNE,14,8.0,13.0,98,0.00,OVC,,0.00,130.0,WeatherDisplay:10.37,2013-02-27 11:50:00,
2013-02-27 14:00:00,44.3,43.8,30.06,NNE,21,7.0,15.0,98,0.00,OVC,,0.00,134.0,WeatherDisplay:10.37,2013-02-27 12:00:00,
2013-02-27 14:10:00,44.2,43.7,30.06,NNE,18,9.0,14.0,98,0.00,OVC,,0.00,97.0,WeatherDisplay:10.37,2013-02-27 12:10:00,
2013-02-27 14:20:00,44.1,43.6,30.06,NNE,14,9.0,17.0,98,0.00,SCT,,0.00,244.0,WeatherDisplay:10.37,2013-02-27 12:20:00,
2013-02-27 14:30:00,44.0,43.5,30.06,NNE,17,10.0,18.0,98,0.00,OVC,,0.00,102.0,WeatherDisplay:10.37,2013-02-27 12:30:00,
2013-02-27 14:40:00,43.7,43.1,30.06,NNE,20,10.0,16.0,98,0.00,OVC,,0.00,100.0,WeatherDisplay:10.37,2013-02-27 12:40:00,
2013-02-27 14:50:00,43.8,43.3,30.06,NNE,22,8.0,14.0,98,0.00,OVC,,0.00,111.0,WeatherDisplay:10.37,2013-02-27 12:50:00,
2013-02-27 15:00:00,43.7,43.2,30.06,NNE,20,10.0,16.0,98,0.00,OVC,,0.00,98.0,WeatherDisplay:10.37,2013-02-27 13:00:00,
2013-02-27 15:10:00,43.3,42.8,30.06,NNE,18,12.0,20.0,98,0.00,OVC,,0.00,72.0,WeatherDisplay:10.37,2013-02-27 13:10:00,
2013-02-27 15:20:00,43.3,42.8,30.06,North,11,8.0,18.0,98,0.00,OVC,,0.00,74.0,WeatherDisplay:10.37,2013-02-27 13:20:00,
2013-02-27 15:30:00,42.9,42.4,30.06,NNE,16,12.0,17.0,98,0.00,OVC,,0.00,77.0,WeatherDisplay:10.37,2013-02-27 13:30:00,
2013-02-27 15:40:00,42.9,42.4,30.07,NNE,18,8.0,15.0,98,0.00,OVC,,0.00,51.0,WeatherDisplay:10.37,2013-02-27 13:40:00,
2013-02-27 15:50:00,42.6,42.1,30.06,NNE,16,10.0,17.0,98,0.00,OVC,,0.00,60.0,WeatherDisplay:10.37,2013-02-27 13:50:00,
2013-02-27 16:00:00,42.5,42.0,30.06,NNE,19,9.0,17.0,98,0.00,,,0.00,51.0,WeatherDisplay:10.37,2013-02-27 14:00:00,
2013-02-27 16:10:00,42.5,42.0,30.07,NNE,14,9.0,16.0,98,0.00,,,0.00,60.0,WeatherDisplay:10.37,2013-02-27 14:10:00,
2013-02-27 16:20:00,42.3,41.8,30.07,NNE,14,7.0,16.0,98,0.00,,,0.00,37.0,WeatherDisplay:10.37,2013-02-27 14:20:00,
2013-02-27 16:30:00,42.2,41.7,30.07,North,6,9.0,14.0,98,0.00,,,0.00,32.0,WeatherDisplay:10.37,2013-02-27 14:30:00,
2013-02-27 16:40:00,42.1,41.6,30.07,North,8,8.0,16.0,98,0.00,,,0.00,26.0,WeatherDisplay:10.37,2013-02-27 14:40:00,
2013-02-27 16:50:00,42.0,41.5,30.07,North,358,9.0,13.0,98,0.00,,,0.00,11.0,WeatherDisplay:10.37,2013-02-27 14:50:00,
2013-02-27 17:00:00,41.9,41.4,30.07,North,355,12.0,15.0,98,0.00,,,0.00,9.0,WeatherDisplay:10.37,2013-02-27 15:00:00,
2013-02-27 17:10:00,41.9,41.3,30.07,North,357,6.0,17.0,98,0.00,,,0.00,11.0,WeatherDisplay:10.37,2013-02-27 15:10:00,
2013-02-27 17:20:00,41.7,41.2,30.08,North,350,8.0,16.0,98,0.00,,,0.00,9.0,WeatherDisplay:10.37,2013-02-27 15:20:00,
2013-02-27 17:30:00,41.6,41.1,30.07,NNW,348,9.0,15.0,98,0.00,,,0.00,7.0,WeatherDisplay:10.37,2013-02-27 15:30:00,
2013-02-27 17:40:00,41.6,41.0,30.07,North,353,7.0,15.0,98,0.00,,,0.00,5.0,WeatherDisplay:10.37,2013-02-27 15:40:00,
2013-02-27 17:50:00,41.6,40.8,30.07,NNW,346,10.0,16.0,97,0.00,,,0.00,0.0,WeatherDisplay:10.37,2013-02-27 15:50:00,
2013-02-27 18:00:00,41.8,41.0,30.07,North,354,10.0,16.0,97,0.00,,,0.00,0.0,WeatherDisplay:10.37,2013-02-27 16:00:00,
2013-02-27 18:10:00,41.9,41.1,30.08,NNW,347,9.0,14.0,97,0.00,,,0.00,0.0,WeatherDisplay:10.37,2013-02-27 16:10:00,
2013-02-27 18:20:00,42.0,41.2,30.08,North,349,8.0,16.0,97,0.00,,,0.00,0.0,WeatherDisplay:10.37,2013-02-27 16:20:00,
2013-02-27 18:30:00,41.9,41.1,30.08,North,0,10.0,20.0,97,0.00,,,0.00,0.0,WeatherDisplay:10.37,2013-02-27 16:30:00,
2013-02-27 18:40:00,41.8,40.7,30.08,NNW,346,10.0,20.0,96,0.00,,,0.00,0.0,WeatherDisplay:10.37,2013-02-27 16:40:00,
2013-02-27 18:50:00,41.8,40.7,30.09,NNW,341,10.0,20.0,96,0.00,,,0.00,0.0,WeatherDisplay:10.37,2013-02-27 16:50:00,
2013-02-27 19:00:00,41.8,40.7,30.09,NNW,344,10.0,18.0,96,0.00,,,0.00,0.0,WeatherDisplay:10.37,2013-02-27 17:00:00,
2013-02-27 19:10:00,41.7,40.4,30.09,NNW,344,7.0,16.0,95,0.00,CLR,,0.00,0.0,WeatherDisplay:10.37,2013-02-27 17:10:00,
2013-02-27 19:20:00,41.8,40.5,30.09,NNW,334,8.0,15.0,95,0.00,CLR,,0.00,0.0,WeatherDisplay:10.37,2013-02-27 17:20:00,
2013-02-27 19:30:00,41.7,40.4,30.09,NNW,337,6.0,16.0,95,0.00,CLR,,0.00,0.0,WeatherDisplay:10.37,2013-02-27 17:30:00,
2013-02-27 19:40:00,41.6,40.3,30.09,NNW,339,10.0,17.0,95,0.00,CLR,,0.00,0.0,WeatherDisplay:10.37,2013-02-27 17:40:00,
2013-02-27 19:50:00,41.5,39.9,30.09,NW,323,9.0,16.0,94,0.00,CLR,,0.00,0.0,WeatherDisplay:10.37,2013-02-27 17:50:00,
2013-02-27 20:00:00,41.4,39.8,30.09,NNW,330,9.0,20.0,94,0.00,CLR,,0.00,0.0,WeatherDisplay:10.37,2013-02-27 18:00:00,
2013-02-27 20:10:00,41.3,39.4,30.09,NW,322,8.0,16.0,93,0.00,CLR,,0.00,0.0,WeatherDisplay:10.37,2013-02-27 18:10:00,
2013-02-27 20:20:00,41.3,39.2,30.09,NW,322,5.0,12.0,92,0.00,CLR,,0.00,0.0,WeatherDisplay:10.37,2013-02-27 18:20:00,
2013-02-27 20:30:00,41.3,39.2,30.10,NNW,346,3.0,12.0,92,0.00,CLR,,0.00,0.0,WeatherDisplay:10.37,2013-02-27 18:30:00,
2013-02-27 20:40:00,41.3,39.2,30.10,NW,320,7.0,10.0,92,0.00,CLR,,0.00,0.0,WeatherDisplay:10.37,2013-02-27 18:40:00,
2013-02-27 20:50:00,41.4,39.5,30.10,NW,323,7.0,14.0,93,0.00,CLR,,0.00,0.0,WeatherDisplay:10.37,2013-02-27 18:50:00,
2013-02-27 21:00:00,41.4,39.5,30.10,NW,313,7.0,13.0,93,0.00,CLR,,0.00,0.0,WeatherDisplay:10.37,2013-02-27 19:00:00,
2013-02-27 21:10:00,41.4,39.8,30.10,NNW,332,5.0,12.0,94,0.00,CLR,,0.00,0.0,WeatherDisplay:10.37,2013-02-27 19:10:00,
2013-02-27 21:20:00,41.4,39.8,30.10,NW,324,7.0,15.0,94,0.00,CLR,,0.00,0.0,WeatherDisplay:10.37,2013-02-27 19:20:00,
2013-02-27 21:30:00,41.4,40.1,30.10,NW,311,6.0,14.0,95,0.00,CLR,,0.00,0.0,WeatherDisplay:10.37,2013-02-27 19:30:00,
2013-02-27 21:40:00,41.4,40.1,30.09,NW,312,7.0,12.0,95,0.00,CLR,,0.00,0.0,WeatherDisplay:10.37,2013-02-27 19:40:00,
2013-02-27 21:50:00,41.4,40.3,30.09,NW,308,7.0,15.0,96,0.00,,,0.00,0.0,WeatherDisplay:10.37,2013-02-27 19:50:00,
2013-02-27 22:00:00,41.5,40.4,30.09,WNW,298,7.0,12.0,96,0.00,,,0.00,0.0,WeatherDisplay:10.37,2013-02-27 20:00:00,
2013-02-27 22:10:00,41.6,40.5,30.09,NW,307,8.0,15.0,96,0.00,,,0.00,0.0,WeatherDisplay:10.37,2013-02-27 20:10:00,
2013-02-27 22:20:00,41.8,41.0,30.09,NW,313,8.0,15.0,97,0.00,,,0.00,0.0,WeatherDisplay:10.37,2013-02-27 20:20:00,
2013-02-27 22:30:00,41.9,41.1,30.09,NW,311,7.0,12.0,97,0.00,,,0.00,0.0,WeatherDisplay:10.37,2013-02-27 20:30:00,
2013-02-27 22:40:00,42.0,41.2,30.08,NW,317,5.0,12.0,97,0.00,,,0.00,0.0,WeatherDisplay:10.37,2013-02-27 20:40:00,
2013-02-27 22:50:00,41.9,41.1,30.08,NNW,332,3.0,13.0,97,0.00,,,0.00,0.0,WeatherDisplay:10.37,2013-02-27 20:50:00,
2013-02-27 22:59:00,41.9,40.8,30.08,NW,323,7.0,12.0,96,0.00,,,0.00,0.0,WeatherDisplay:10.37,2013-02-27 20:59:00,
2013-02-27 23:10:00,41.9,40.8,30.08,NNW,328,6.0,14.0,96,0.00,,,0.00,0.0,WeatherDisplay:10.37,2013-02-27 21:10:00,
2013-02-27 23:20:00,42.2,41.1,30.08,NW,320,6.0,13.0,96,0.00,,,0.00,0.0,WeatherDisplay:10.37,2013-02-27 21:20:00,
2013-02-27 23:30:00,42.2,41.1,30.08,NW,318,8.0,15.0,96,0.00,,,0.00,0.0,WeatherDisplay:10.37,2013-02-27 21:30:00,
2013-02-27 23:40:00,42.2,41.1,30.08,NW,314,10.0,16.0,96,0.00,,,0.00,0.0,WeatherDisplay:10.37,2013-02-27 21:40:00,
2013-02-27 23:50:00,42.2,41.1,30.08,NNW,334,6.0,17.0,96,0.00,,,0.00,0.0,WeatherDisplay:10.37,2013-02-27 21:50:00,
2013-02-27 23:59:00,42.1,41.0,30.08,NNW,329,9.0,17.0,96,0.00,,,0.00,0.0,WeatherDisplay:10.37,2013-02-27 21:59:00,